sensor_id;sensor_type;location;lat;lon;timestamp;pressure;altitude;pressure_sealevel;temperature;humidity
14343;BME280;7255;53.596;9.960;2024-01-27T00:00:08;102459.81;;;5.65;nan
14343;BME280;7255;53.596;9.960;2024-01-27T00:02:34;102442.97;;;5.64;nan
14343;BME280;7255;53.596;9.960;2024-01-27T00:05:01;102455.31;;;5.65;nan
14343;BME280;7255;53.596;9.960;2024-01-27T00:07:29;102452.75;;;5.73;nan
14343;BME280;7255;53.596;9.960;2024-01-27T00:09:55;102459.97;;;5.81;nan
14343;BME280;7255;53.596;9.960;2024-01-27T00:12:24;102478.56;;;5.73;nan
14343;BME280;7255;53.596;9.960;2024-01-27T00:14:50;102457.00;;;5.66;nan
14343;BME280;7255;53.596;9.960;2024-01-27T00:17:17;102456.38;;;5.72;nan
14343;BME280;7255;53.596;9.960;2024-01-27T00:19:44;102452.75;;;5.73;nan
14343;BME280;7255;53.596;9.960;2024-01-27T00:22:11;102447.16;;;5.67;nan
14343;BME280;7255;53.596;9.960;2024-01-27T00:24:38;102448.25;;;5.74;nan
14343;BME280;7255;53.596;9.960;2024-01-27T00:27:05;102447.09;;;5.76;nan
14343;BME280;7255;53.596;9.960;2024-01-27T00:29:31;102466.16;;;5.82;nan
14343;BME280;7255;53.596;9.960;2024-01-27T00:31:57;102463.25;;;5.93;nan
14343;BME280;7255;53.596;9.960;2024-01-27T00:34:24;102466.88;;;6.02;nan
14343;BME280;7255;53.596;9.960;2024-01-27T00:36:50;102475.62;;;5.94;nan
14343;BME280;7255;53.596;9.960;2024-01-27T00:39:17;102470.00;;;5.97;nan
14343;BME280;7255;53.596;9.960;2024-01-27T00:41:45;102465.84;;;5.85;nan
14343;BME280;7255;53.596;9.960;2024-01-27T00:44:11;102472.28;;;5.92;nan
14343;BME280;7255;53.596;9.960;2024-01-27T00:46:38;102464.94;;;5.94;nan
14343;BME280;7255;53.596;9.960;2024-01-27T00:49:04;102480.09;;;6.03;nan
14343;BME280;7255;53.596;9.960;2024-01-27T00:51:32;102479.53;;;6.00;nan
14343;BME280;7255;53.596;9.960;2024-01-27T00:53:58;102479.28;;;5.93;nan
14343;BME280;7255;53.596;9.960;2024-01-27T00:56:25;102482.62;;;5.95;nan
14343;BME280;7255;53.596;9.960;2024-01-27T00:58:52;102489.94;;;5.93;nan
14343;BME280;7255;53.596;9.960;2024-01-27T01:01:19;102480.09;;;5.93;nan
14343;BME280;7255;53.596;9.960;2024-01-27T01:03:45;102490.25;;;5.90;nan
14343;BME280;7255;53.596;9.960;2024-01-27T01:06:11;102490.56;;;5.87;nan
14343;BME280;7255;53.596;9.960;2024-01-27T01:08:38;102488.88;;;5.86;nan
14343;BME280;7255;53.596;9.960;2024-01-27T01:11:04;102503.97;;;6.05;nan
14343;BME280;7255;53.596;9.960;2024-01-27T01:13:30;102500.06;;;5.99;nan
14343;BME280;7255;53.596;9.960;2024-01-27T01:15:58;102517.19;;;5.96;nan
14343;BME280;7255;53.596;9.960;2024-01-27T01:18:24;102493.28;;;5.95;nan
14343;BME280;7255;53.596;9.960;2024-01-27T01:20:51;102502.00;;;5.97;nan
14343;BME280;7255;53.596;9.960;2024-01-27T01:23:17;102499.16;;;6.08;nan
14343;BME280;7255;53.596;9.960;2024-01-27T01:25:43;102501.72;;;6.00;nan
14343;BME280;7255;53.596;9.960;2024-01-27T01:28:10;102511.03;;;5.96;nan
14343;BME280;7255;53.596;9.960;2024-01-27T01:30:36;102503.41;;;6.01;nan
14343;BME280;7255;53.596;9.960;2024-01-27T01:33:04;102498.09;;;5.91;nan
14343;BME280;7255;53.596;9.960;2024-01-27T01:35:30;102509.03;;;5.98;nan
14343;BME280;7255;53.596;9.960;2024-01-27T01:37:56;102528.94;;;6.04;nan
14343;BME280;7255;53.596;9.960;2024-01-27T01:40:23;102516.06;;;5.99;nan
14343;BME280;7255;53.596;9.960;2024-01-27T01:42:52;102526.75;;;5.99;nan
14343;BME280;7255;53.596;9.960;2024-01-27T01:45:18;102534.56;;;6.01;nan
14343;BME280;7255;53.596;9.960;2024-01-27T01:47:45;102539.00;;;6.10;nan
14343;BME280;7255;53.596;9.960;2024-01-27T01:50:13;102543.53;;;6.09;nan
14343;BME280;7255;53.596;9.960;2024-01-27T01:52:40;102550.78;;;6.17;nan
14343;BME280;7255;53.596;9.960;2024-01-27T01:55:07;102569.31;;;6.19;nan
14343;BME280;7255;53.596;9.960;2024-01-27T01:57:33;102572.97;;;6.18;nan
14343;BME280;7255;53.596;9.960;2024-01-27T01:59:59;102567.09;;;6.14;nan
14343;BME280;7255;53.596;9.960;2024-01-27T02:02:26;102564.56;;;6.12;nan
14343;BME280;7255;53.596;9.960;2024-01-27T02:04:52;102553.13;;;6.02;nan
14343;BME280;7255;53.596;9.960;2024-01-27T02:07:20;102575.81;;;6.16;nan
14343;BME280;7255;53.596;9.960;2024-01-27T02:09:46;102570.00;;;6.03;nan
14343;BME280;7255;53.596;9.960;2024-01-27T02:12:12;102577.00;;;6.04;nan
14343;BME280;7255;53.596;9.960;2024-01-27T02:14:39;102564.09;;;5.99;nan
14343;BME280;7255;53.596;9.960;2024-01-27T02:17:05;102579.22;;;6.08;nan
14343;BME280;7255;53.596;9.960;2024-01-27T02:19:31;102569.37;;;6.09;nan
14343;BME280;7255;53.596;9.960;2024-01-27T02:21:58;102574.44;;;6.12;nan
14343;BME280;7255;53.596;9.960;2024-01-27T02:24:25;102594.91;;;6.11;nan
14343;BME280;7255;53.596;9.960;2024-01-27T02:26:53;102585.75;;;5.96;nan
14343;BME280;7255;53.596;9.960;2024-01-27T02:29:19;102594.38;;;6.08;nan
14343;BME280;7255;53.596;9.960;2024-01-27T02:31:46;102589.00;;;6.18;nan
14343;BME280;7255;53.596;9.960;2024-01-27T02:34:12;102595.53;;;6.05;nan
14343;BME280;7255;53.596;9.960;2024-01-27T02:36:39;102598.06;;;6.07;nan
14343;BME280;7255;53.596;9.960;2024-01-27T02:39:05;102607.00;;;6.15;nan
14343;BME280;7255;53.596;9.960;2024-01-27T02:41:33;102605.59;;;6.11;nan
14343;BME280;7255;53.596;9.960;2024-01-27T02:44:04;102603.31;;;6.16;nan
14343;BME280;7255;53.596;9.960;2024-01-27T02:46:30;102614.00;;;6.16;nan
14343;BME280;7255;53.596;9.960;2024-01-27T02:48:56;102599.06;;;6.24;nan
14343;BME280;7255;53.596;9.960;2024-01-27T02:51:23;102605.31;;;6.14;nan
14343;BME280;7255;53.596;9.960;2024-01-27T02:53:49;102615.69;;;6.18;nan
14343;BME280;7255;53.596;9.960;2024-01-27T02:56:15;102617.34;;;6.19;nan
14343;BME280;7255;53.596;9.960;2024-01-27T02:58:43;102616.16;;;6.31;nan
14343;BME280;7255;53.596;9.960;2024-01-27T03:01:09;102627.69;;;6.31;nan
14343;BME280;7255;53.596;9.960;2024-01-27T03:03:36;102623.31;;;6.12;nan
14343;BME280;7255;53.596;9.960;2024-01-27T03:06:02;102623.09;;;5.96;nan
14343;BME280;7255;53.596;9.960;2024-01-27T03:08:29;102620.53;;;5.94;nan
14343;BME280;7255;53.596;9.960;2024-01-27T03:10:55;102612.09;;;6.09;nan
14343;BME280;7255;53.596;9.960;2024-01-27T03:13:22;102609.00;;;6.04;nan
14343;BME280;7255;53.596;9.960;2024-01-27T03:15:49;102608.50;;;5.90;nan
14343;BME280;7255;53.596;9.960;2024-01-27T03:18:17;102608.78;;;5.87;nan
14343;BME280;7255;53.596;9.960;2024-01-27T03:20:44;102605.44;;;5.85;nan
14343;BME280;7255;53.596;9.960;2024-01-27T03:23:10;102613.25;;;5.96;nan
14343;BME280;7255;53.596;9.960;2024-01-27T03:25:36;102627.03;;;5.92;nan
14343;BME280;7255;53.596;9.960;2024-01-27T03:28:03;102627.59;;;5.86;nan
14343;BME280;7255;53.596;9.960;2024-01-27T03:30:30;102625.38;;;5.81;nan
14343;BME280;7255;53.596;9.960;2024-01-27T03:32:57;102636.34;;;5.78;nan
14343;BME280;7255;53.596;9.960;2024-01-27T03:35:24;102635.50;;;5.77;nan
14343;BME280;7255;53.596;9.960;2024-01-27T03:37:50;102639.41;;;5.83;nan
14343;BME280;7255;53.596;9.960;2024-01-27T03:40:17;102620.59;;;5.85;nan
14343;BME280;7255;53.596;9.960;2024-01-27T03:42:43;102630.72;;;5.81;nan
14343;BME280;7255;53.596;9.960;2024-01-27T03:45:10;102638.38;;;5.66;nan
14343;BME280;7255;53.596;9.960;2024-01-27T03:47:36;102629.94;;;5.61;nan
14343;BME280;7255;53.596;9.960;2024-01-27T03:50:05;102640.34;;;5.54;nan
14343;BME280;7255;53.596;9.960;2024-01-27T03:52:32;102638.66;;;5.63;nan
14343;BME280;7255;53.596;9.960;2024-01-27T03:54:58;102661.63;;;5.74;nan
14343;BME280;7255;53.596;9.960;2024-01-27T03:57:24;102652.66;;;5.65;nan
14343;BME280;7255;53.596;9.960;2024-01-27T03:59:50;102648.44;;;5.72;nan
14343;BME280;7255;53.596;9.960;2024-01-27T04:02:17;102660.53;;;5.67;nan
14343;BME280;7255;53.596;9.960;2024-01-27T04:04:43;102656.84;;;5.77;nan
14343;BME280;7255;53.596;9.960;2024-01-27T04:07:11;102656.84;;;5.77;nan
14343;BME280;7255;53.596;9.960;2024-01-27T04:09:37;102655.25;;;5.57;nan
14343;BME280;7255;53.596;9.960;2024-01-27T04:12:04;102666.69;;;5.67;nan
14343;BME280;7255;53.596;9.960;2024-01-27T04:14:30;102667.00;;;5.64;nan
14343;BME280;7255;53.596;9.960;2024-01-27T04:16:57;102658.59;;;5.59;nan
14343;BME280;7255;53.596;9.960;2024-01-27T04:19:23;102723.72;;;5.47;nan
14343;BME280;7255;53.596;9.960;2024-01-27T04:21:49;102651.91;;;5.35;nan
14343;BME280;7255;53.596;9.960;2024-01-27T04:24:17;102652.75;;;5.26;nan
14343;BME280;7255;53.596;9.960;2024-01-27T04:26:43;102657.78;;;5.29;nan
14343;BME280;7255;53.596;9.960;2024-01-27T04:29:10;102650.78;;;5.28;nan
14343;BME280;7255;53.596;9.960;2024-01-27T04:31:40;102655.28;;;5.18;nan
14343;BME280;7255;53.596;9.960;2024-01-27T04:34:07;102658.09;;;5.16;nan
14343;BME280;7255;53.596;9.960;2024-01-27T04:36:33;102667.91;;;5.16;nan
14343;BME280;7255;53.596;9.960;2024-01-27T04:39:02;102657.00;;;5.09;nan
14343;BME280;7255;53.596;9.960;2024-01-27T04:41:30;102658.38;;;5.04;nan
14343;BME280;7255;53.596;9.960;2024-01-27T04:43:57;102665.97;;;5.08;nan
14343;BME280;7255;53.596;9.960;2024-01-27T04:46:24;102663.44;;;5.07;nan
14343;BME280;7255;53.596;9.960;2024-01-27T04:48:50;102683.09;;;5.06;nan
14343;BME280;7255;53.596;9.960;2024-01-27T04:51:16;102674.94;;;5.17;nan
14343;BME280;7255;53.596;9.960;2024-01-27T04:53:43;102691.19;;;5.33;nan
14343;BME280;7255;53.596;9.960;2024-01-27T04:56:09;102686.41;;;5.27;nan
14343;BME280;7255;53.596;9.960;2024-01-27T04:58:39;102672.12;;;5.28;nan
14343;BME280;7255;53.596;9.960;2024-01-27T05:01:05;102694.56;;;5.35;nan
14343;BME280;7255;53.596;9.960;2024-01-27T05:03:32;102698.75;;;5.38;nan
14343;BME280;7255;53.596;9.960;2024-01-27T05:05:58;102694.28;;;5.38;nan
14343;BME280;7255;53.596;9.960;2024-01-27T05:08:25;102684.75;;;5.26;nan
14343;BME280;7255;53.596;9.960;2024-01-27T05:10:51;102669.03;;;5.23;nan
14343;BME280;7255;53.596;9.960;2024-01-27T05:13:17;102657.53;;;5.03;nan
14343;BME280;7255;53.596;9.960;2024-01-27T05:15:45;102674.37;;;4.94;nan
14343;BME280;7255;53.596;9.960;2024-01-27T05:18:11;102679.41;;;4.87;nan
14343;BME280;7255;53.596;9.960;2024-01-27T05:20:38;102672.12;;;4.70;nan
14343;BME280;7255;53.596;9.960;2024-01-27T05:23:04;102664.53;;;4.65;nan
14343;BME280;7255;53.596;9.960;2024-01-27T05:25:29;102672.94;;;4.60;nan
14343;BME280;7255;53.596;9.960;2024-01-27T05:27:56;102683.84;;;4.57;nan
14343;BME280;7255;53.596;9.960;2024-01-27T05:30:22;102681.59;;;4.43;nan
14343;BME280;7255;53.596;9.960;2024-01-27T05:32:50;102675.69;;;4.39;nan
14343;BME280;7255;53.596;9.960;2024-01-27T05:35:16;102639.25;;;4.30;nan
14343;BME280;7255;53.596;9.960;2024-01-27T05:37:42;102677.06;;;4.34;nan
14343;BME280;7255;53.596;9.960;2024-01-27T05:40:09;102677.94;;;4.34;nan
14343;BME280;7255;53.596;9.960;2024-01-27T05:42:36;102669.22;;;4.32;nan
14343;BME280;7255;53.596;9.960;2024-01-27T05:45:02;102672.00;;;4.21;nan
14343;BME280;7255;53.596;9.960;2024-01-27T05:47:29;102690.81;;;4.29;nan
14343;BME280;7255;53.596;9.960;2024-01-27T05:49:57;102685.44;;;4.19;nan
14343;BME280;7255;53.596;9.960;2024-01-27T05:52:23;102701.69;;;4.16;nan
14343;BME280;7255;53.596;9.960;2024-01-27T05:54:50;102688.28;;;4.28;nan
14343;BME280;7255;53.596;9.960;2024-01-27T05:57:17;102709.00;;;4.24;nan
14343;BME280;7255;53.596;9.960;2024-01-27T05:59:43;102702.84;;;4.23;nan
14343;BME280;7255;53.596;9.960;2024-01-27T06:02:09;102698.34;;;4.24;nan
14343;BME280;7255;53.596;9.960;2024-01-27T06:04:35;102707.28;;;4.23;nan
14343;BME280;7255;53.596;9.960;2024-01-27T06:07:03;102713.47;;;4.23;nan
14343;BME280;7255;53.596;9.960;2024-01-27T06:09:29;102708.44;;;4.30;nan
14343;BME280;7255;53.596;9.960;2024-01-27T06:11:58;102720.78;;;4.31;nan
14343;BME280;7255;53.596;9.960;2024-01-27T06:14:24;102684.34;;;4.32;nan
14343;BME280;7255;53.596;9.960;2024-01-27T06:16:51;102719.38;;;4.27;nan
14343;BME280;7255;53.596;9.960;2024-01-27T06:19:16;102711.75;;;4.13;nan
14343;BME280;7255;53.596;9.960;2024-01-27T06:21:43;102699.97;;;4.15;nan
14343;BME280;7255;53.596;9.960;2024-01-27T06:24:10;102702.19;;;4.10;nan
14343;BME280;7255;53.596;9.960;2024-01-27T06:26:37;102714.53;;;4.11;nan
14343;BME280;7255;53.596;9.960;2024-01-27T06:29:03;102741.97;;;4.12;nan
14343;BME280;7255;53.596;9.960;2024-01-27T06:31:30;102721.81;;;4.09;nan
14343;BME280;7255;53.596;9.960;2024-01-27T06:33:56;102718.72;;;4.04;nan
14343;BME280;7255;53.596;9.960;2024-01-27T06:36:22;102748.97;;;4.03;nan
14343;BME280;7255;53.596;9.960;2024-01-27T06:38:50;102745.31;;;4.04;nan
14343;BME280;7255;53.596;9.960;2024-01-27T06:41:17;102734.63;;;3.94;nan
14343;BME280;7255;53.596;9.960;2024-01-27T06:43:44;102726.22;;;3.99;nan
14343;BME280;7255;53.596;9.960;2024-01-27T06:46:10;102727.09;;;3.99;nan
14343;BME280;7255;53.596;9.960;2024-01-27T06:48:36;102729.88;;;3.98;nan
14343;BME280;7255;53.596;9.960;2024-01-27T06:51:03;102728.19;;;3.97;nan
14343;BME280;7255;53.596;9.960;2024-01-27T06:53:30;102742.72;;;3.93;nan
14343;BME280;7255;53.596;9.960;2024-01-27T06:55:56;102751.41;;;3.95;nan
14343;BME280;7255;53.596;9.960;2024-01-27T06:58:23;102764.84;;;3.93;nan
14343;BME280;7255;53.596;9.960;2024-01-27T07:00:50;102769.91;;;3.96;nan
14343;BME280;7255;53.596;9.960;2024-01-27T07:03:16;102762.91;;;3.95;nan
14343;BME280;7255;53.596;9.960;2024-01-27T07:05:42;102767.06;;;3.88;nan
14343;BME280;7255;53.596;9.960;2024-01-27T07:08:09;102772.94;;;3.92;nan
14343;BME280;7255;53.596;9.960;2024-01-27T07:10:35;102776.03;;;3.87;nan
14343;BME280;7255;53.596;9.960;2024-01-27T07:13:02;102771.78;;;3.84;nan
14343;BME280;7255;53.596;9.960;2024-01-27T07:15:29;102776.81;;;3.78;nan
14343;BME280;7255;53.596;9.960;2024-01-27T07:17:56;102765.56;;;3.74;nan
14343;BME280;7255;53.596;9.960;2024-01-27T07:20:23;102785.44;;;3.70;nan
14343;BME280;7255;53.596;9.960;2024-01-27T07:22:49;102794.62;;;3.66;nan
14343;BME280;7255;53.596;9.960;2024-01-27T07:25:16;102811.34;;;3.57;nan
14343;BME280;7255;53.596;9.960;2024-01-27T07:27:42;102787.62;;;3.65;nan
14343;BME280;7255;53.596;9.960;2024-01-27T07:30:10;102794.03;;;3.62;nan
14343;BME280;7255;53.596;9.960;2024-01-27T07:32:38;102819.53;;;3.65;nan
14343;BME280;7255;53.596;9.960;2024-01-27T07:35:06;102797.91;;;3.58;nan
14343;BME280;7255;53.596;9.960;2024-01-27T07:37:32;102805.19;;;3.56;nan
14343;BME280;7255;53.596;9.960;2024-01-27T07:39:59;102803.75;;;3.52;nan
14343;BME280;7255;53.596;9.960;2024-01-27T07:42:25;102804.94;;;3.59;nan
14343;BME280;7255;53.596;9.960;2024-01-27T07:44:51;102820.31;;;3.56;nan
14343;BME280;7255;53.596;9.960;2024-01-27T07:47:18;102804.00;;;3.49;nan
14343;BME280;7255;53.596;9.960;2024-01-27T07:49:46;102804.19;;;3.36;nan
14343;BME280;7255;53.596;9.960;2024-01-27T07:52:14;102792.19;;;3.42;nan
14343;BME280;7255;53.596;9.960;2024-01-27T07:54:41;102809.25;;;3.39;nan
14343;BME280;7255;53.596;9.960;2024-01-27T07:57:07;102815.75;;;3.46;nan
14343;BME280;7255;53.596;9.960;2024-01-27T07:59:33;102820.78;;;3.50;nan
14343;BME280;7255;53.596;9.960;2024-01-27T08:02:00;102805.44;;;3.53;nan
14343;BME280;7255;53.596;9.960;2024-01-27T08:04:26;102837.31;;;3.53;nan
14343;BME280;7255;53.596;9.960;2024-01-27T08:06:54;102825.94;;;3.62;nan
14343;BME280;7255;53.596;9.960;2024-01-27T08:09:20;102813.28;;;3.55;nan
14343;BME280;7255;53.596;9.960;2024-01-27T08:11:47;102808.47;;;3.49;nan
14343;BME280;7255;53.596;9.960;2024-01-27T08:14:16;102812.97;;;3.48;nan
14343;BME280;7255;53.596;9.960;2024-01-27T08:16:43;102815.75;;;3.46;nan
14343;BME280;7255;53.596;9.960;2024-01-27T08:19:09;102813.28;;;3.55;nan
14343;BME280;7255;53.596;9.960;2024-01-27T08:21:35;102802.16;;;3.61;nan
14343;BME280;7255;53.596;9.960;2024-01-27T08:24:03;102817.84;;;3.64;nan
14343;BME280;7255;53.596;9.960;2024-01-27T08:26:30;102834.06;;;3.61;nan
14343;BME280;7255;53.596;9.960;2024-01-27T08:28:56;102849.50;;;3.67;nan
14343;BME280;7255;53.596;9.960;2024-01-27T08:31:23;102831.84;;;3.66;nan
14343;BME280;7255;53.596;9.960;2024-01-27T08:33:50;102852.63;;;3.72;nan
14343;BME280;7255;53.596;9.960;2024-01-27T08:36:17;102848.97;;;3.73;nan
14343;BME280;7255;53.596;9.960;2024-01-27T08:38:44;102831.41;;;3.82;nan
14343;BME280;7255;53.596;9.960;2024-01-27T08:41:12;102838.69;;;3.80;nan
14343;BME280;7255;53.596;9.960;2024-01-27T08:43:38;102836.16;;;3.78;nan
14343;BME280;7255;53.596;9.960;2024-01-27T08:46:05;102836.16;;;3.78;nan
14343;BME280;7255;53.596;9.960;2024-01-27T08:48:32;102860.47;;;3.74;nan
14343;BME280;7255;53.596;9.960;2024-01-27T08:50:59;102856.91;;;3.84;nan
14343;BME280;7255;53.596;9.960;2024-01-27T08:53:25;102858.34;;;3.89;nan
14343;BME280;7255;53.596;9.960;2024-01-27T08:55:51;102859.78;;;3.93;nan
14343;BME280;7255;53.596;9.960;2024-01-27T08:58:19;102873.25;;;4.01;nan
14343;BME280;7255;53.596;9.960;2024-01-27T09:00:46;102865.94;;;3.93;nan
14343;BME280;7255;53.596;9.960;2024-01-27T09:03:12;102870.47;;;4.02;nan
14343;BME280;7255;53.596;9.960;2024-01-27T09:05:39;102864.91;;;4.05;nan
14343;BME280;7255;53.596;9.960;2024-01-27T09:08:09;102878.69;;;4.11;nan
14343;BME280;7255;53.596;9.960;2024-01-27T09:10:35;102879.25;;;4.14;nan
14343;BME280;7255;53.596;9.960;2024-01-27T09:13:01;102898.31;;;4.19;nan
14343;BME280;7255;53.596;9.960;2024-01-27T09:15:30;102884.97;;;4.31;nan
14343;BME280;7255;53.596;9.960;2024-01-27T09:17:56;102883.53;;;4.27;nan
14343;BME280;7255;53.596;9.960;2024-01-27T09:20:23;102908.72;;;4.22;nan
14343;BME280;7255;53.596;9.960;2024-01-27T09:22:49;102882.09;;;4.22;nan
14343;BME280;7255;53.596;9.960;2024-01-27T09:25:16;102904.31;;;4.33;nan
14343;BME280;7255;53.596;9.960;2024-01-27T09:27:42;102908.03;;;4.41;nan
14343;BME280;7255;53.596;9.960;2024-01-27T09:30:09;102903.25;;;4.45;nan
14343;BME280;7255;53.596;9.960;2024-01-27T09:32:37;102903.25;;;4.45;nan
14343;BME280;7255;53.596;9.960;2024-01-27T09:35:04;102894.56;;;4.43;nan
14343;BME280;7255;53.596;9.960;2024-01-27T09:37:31;102905.00;;;4.56;nan
14343;BME280;7255;53.596;9.960;2024-01-27T09:39:58;102918.84;;;4.71;nan
14343;BME280;7255;53.596;9.960;2024-01-27T09:42:28;102903.09;;;4.68;nan
14343;BME280;7255;53.596;9.960;2024-01-27T09:44:56;102915.50;;;4.78;nan
14343;BME280;7255;53.596;9.960;2024-01-27T09:47:24;102890.25;;;4.73;nan
14343;BME280;7255;53.596;9.960;2024-01-27T09:49:52;102905.31;;;4.62;nan
14343;BME280;7255;53.596;9.960;2024-01-27T09:52:19;102896.09;;;4.67;nan
14343;BME280;7255;53.596;9.960;2024-01-27T09:54:45;102904.78;;;4.69;nan
14343;BME280;7255;53.596;9.960;2024-01-27T09:57:14;102917.72;;;4.73;nan
14343;BME280;7255;53.596;9.960;2024-01-27T09:59:43;102923.06;;;4.83;nan
14343;BME280;7255;53.596;9.960;2024-01-27T10:02:12;102916.69;;;4.95;nan
14343;BME280;7255;53.596;9.960;2024-01-27T10:04:41;102913.06;;;4.96;nan
14343;BME280;7255;53.596;9.960;2024-01-27T10:07:08;102919.50;;;5.04;nan
14343;BME280;7255;53.596;9.960;2024-01-27T10:09:35;102919.00;;;5.10;nan
14343;BME280;7255;53.596;9.960;2024-01-27T10:12:03;102934.19;;;5.19;nan
14343;BME280;7255;53.596;9.960;2024-01-27T10:14:38;102937.84;;;5.28;nan
14343;BME280;7255;53.596;9.960;2024-01-27T10:17:04;102927.72;;;5.21;nan
14343;BME280;7255;53.596;9.960;2024-01-27T10:19:30;102940.69;;;5.36;nan
14343;BME280;7255;53.596;9.960;2024-01-27T10:22:00;102951.66;;;5.43;nan
14343;BME280;7255;53.596;9.960;2024-01-27T10:24:28;102945.75;;;5.49;nan
14343;BME280;7255;53.596;9.960;2024-01-27T10:26:59;102946.34;;;5.62;nan
14343;BME280;7255;53.596;9.960;2024-01-27T10:29:25;102940.19;;;5.71;nan
14343;BME280;7255;53.596;9.960;2024-01-27T10:31:52;102942.44;;;5.66;nan
14343;BME280;7255;53.596;9.960;2024-01-27T10:34:19;102945.25;;;5.65;nan
14343;BME280;7255;53.596;9.960;2024-01-27T10:36:46;102939.34;;;5.71;nan
14343;BME280;7255;53.596;9.960;2024-01-27T10:39:20;102941.03;;;5.82;nan
14343;BME280;7255;53.596;9.960;2024-01-27T10:41:49;102938.25;;;5.93;nan
14343;BME280;7255;53.596;9.960;2024-01-27T10:44:17;102955.09;;;5.93;nan
14343;BME280;7255;53.596;9.960;2024-01-27T10:46:45;102948.66;;;6.06;nan
14343;BME280;7255;53.596;9.960;2024-01-27T10:49:16;102958.81;;;6.12;nan
14343;BME280;7255;53.596;9.960;2024-01-27T10:51:46;102955.13;;;6.23;nan
14343;BME280;7255;53.596;9.960;2024-01-27T10:54:14;102953.44;;;6.22;nan
14343;BME280;7255;53.596;9.960;2024-01-27T10:56:42;102956.25;;;6.30;nan
14343;BME280;7255;53.596;9.960;2024-01-27T10:59:11;102950.03;;;6.39;nan
14343;BME280;7255;53.596;9.960;2024-01-27T11:01:40;102963.53;;;6.47;nan
14343;BME280;7255;53.596;9.960;2024-01-27T11:04:08;102966.31;;;6.55;nan
14343;BME280;7255;53.596;9.960;2024-01-27T11:06:38;102944.69;;;6.59;nan
14343;BME280;7255;53.596;9.960;2024-01-27T11:09:05;102955.34;;;6.68;nan
14343;BME280;7255;53.596;9.960;2024-01-27T11:11:34;102944.63;;;6.78;nan
14343;BME280;7255;53.596;9.960;2024-01-27T11:14:01;102959.78;;;6.87;nan
14343;BME280;7255;53.596;9.960;2024-01-27T11:16:29;102960.62;;;6.88;nan
14343;BME280;7255;53.596;9.960;2024-01-27T11:18:56;102969.34;;;7.00;nan
14343;BME280;7255;53.596;9.960;2024-01-27T11:21:22;102973.78;;;7.09;nan
14343;BME280;7255;53.596;9.960;2024-01-27T11:23:48;102980.22;;;7.16;nan
14343;BME280;7255;53.596;9.960;2024-01-27T11:26:19;102981.06;;;7.17;nan
14343;BME280;7255;53.596;9.960;2024-01-27T11:28:46;102974.38;;;7.03;nan
14343;BME280;7255;53.596;9.960;2024-01-27T11:31:12;102993.19;;;7.11;nan
14343;BME280;7255;53.596;9.960;2024-01-27T11:33:44;102988.34;;;7.24;nan
14343;BME280;7255;53.596;9.960;2024-01-27T11:36:18;102980.75;;;7.29;nan
14343;BME280;7255;53.596;9.960;2024-01-27T11:38:45;102983.75;;;7.44;nan
14343;BME280;7255;53.596;9.960;2024-01-27T11:41:11;103002.38;;;7.36;nan
14343;BME280;7255;53.596;9.960;2024-01-27T11:43:38;103002.56;;;7.52;nan
14343;BME280;7255;53.596;9.960;2024-01-27T11:46:05;103004.56;;;7.50;nan
14343;BME280;7255;53.596;9.960;2024-01-27T11:48:31;103009.37;;;7.47;nan
14343;BME280;7255;53.596;9.960;2024-01-27T11:51:06;103006.53;;;7.48;nan
14343;BME280;7255;53.596;9.960;2024-01-27T11:53:33;103007.56;;;7.65;nan
14343;BME280;7255;53.596;9.960;2024-01-27T11:55:59;103022.19;;;7.71;nan
14343;BME280;7255;53.596;9.960;2024-01-27T11:58:26;103008.97;;;7.69;nan
14343;BME280;7255;53.596;9.960;2024-01-27T12:00:53;103014.34;;;7.69;nan
14343;BME280;7255;53.596;9.960;2024-01-27T12:03:19;103017.09;;;7.78;nan
14343;BME280;7255;53.596;9.960;2024-01-27T12:05:46;103008.97;;;7.69;nan
14343;BME280;7255;53.596;9.960;2024-01-27T12:08:14;103024.44;;;7.76;nan
14343;BME280;7255;53.596;9.960;2024-01-27T12:10:40;103036.22;;;7.83;nan
14343;BME280;7255;53.596;9.960;2024-01-27T12:13:07;103044.28;;;8.01;nan
14343;BME280;7255;53.596;9.960;2024-01-27T12:15:33;103038.31;;;8.07;nan
14343;BME280;7255;53.596;9.960;2024-01-27T12:17:59;103043.37;;;8.10;nan
14343;BME280;7255;53.596;9.960;2024-01-27T12:20:26;103039.69;;;8.11;nan
14343;BME280;7255;53.596;9.960;2024-01-27T12:23:02;103044.59;;;7.98;nan
14343;BME280;7255;53.596;9.960;2024-01-27T12:25:30;103045.94;;;8.02;nan
14343;BME280;7255;53.596;9.960;2024-01-27T12:27:56;103051.19;;;8.21;nan
14343;BME280;7255;53.596;9.960;2024-01-27T12:30:26;103050.88;;;8.24;nan
14343;BME280;7255;53.596;9.960;2024-01-27T12:32:52;103048.91;;;8.26;nan
14343;BME280;7255;53.596;9.960;2024-01-27T12:35:18;103041.00;;;8.25;nan
14343;BME280;7255;53.596;9.960;2024-01-27T12:37:45;103043.75;;;8.33;nan
14343;BME280;7255;53.596;9.960;2024-01-27T12:40:17;103041.53;;;8.28;nan
14343;BME280;7255;53.596;9.960;2024-01-27T12:42:45;103035.94;;;8.22;nan
14343;BME280;7255;53.596;9.960;2024-01-27T12:45:11;103036.94;;;8.39;nan
14343;BME280;7255;53.596;9.960;2024-01-27T12:47:38;103029.66;;;8.31;nan
14343;BME280;7255;53.596;9.960;2024-01-27T12:50:05;103024.56;;;8.38;nan
14343;BME280;7255;53.596;9.960;2024-01-27T12:52:32;103030.19;;;8.44;nan
14343;BME280;7255;53.596;9.960;2024-01-27T12:54:59;103027.22;;;8.20;nan
14343;BME280;7255;53.596;9.960;2024-01-27T12:57:25;103018.50;;;8.18;nan
14343;BME280;7255;53.596;9.960;2024-01-27T12:59:53;103029.75;;;8.21;nan
14343;BME280;7255;53.596;9.960;2024-01-27T13:02:19;103024.31;;;8.31;nan
14343;BME280;7255;53.596;9.960;2024-01-27T13:04:46;103024.81;;;8.44;nan
14343;BME280;7255;53.596;9.960;2024-01-27T13:07:12;103008.56;;;8.28;nan
14343;BME280;7255;53.596;9.960;2024-01-27T13:09:39;103021.88;;;8.20;nan
14343;BME280;7255;53.596;9.960;2024-01-27T13:12:07;103016.22;;;8.23;nan
14343;BME280;7255;53.596;9.960;2024-01-27T13:14:33;103032.50;;;8.29;nan
14343;BME280;7255;53.596;9.960;2024-01-27T13:17:01;103017.13;;;8.14;nan
14343;BME280;7255;53.596;9.960;2024-01-27T13:19:27;103016.44;;;7.94;nan
14343;BME280;7255;53.596;9.960;2024-01-27T13:21:53;103012.75;;;7.95;nan
14343;BME280;7255;53.596;9.960;2024-01-27T13:24:20;103010.75;;;7.97;nan
14343;BME280;7255;53.596;9.960;2024-01-27T13:26:47;103027.06;;;8.03;nan
14343;BME280;7255;53.596;9.960;2024-01-27T13:29:14;103033.03;;;7.97;nan